sensor_id;sensor_type;location;lat;lon;timestamp;temperature;humidity
66013;DHT22;52783;50.502;8.190;2023-03-11T00:00:18;1.40;99.90
66013;DHT22;52783;50.502;8.190;2023-03-11T00:02:45;1.30;99.90
66013;DHT22;52783;50.502;8.190;2023-03-11T00:05:27;1.30;99.90
66013;DHT22;52783;50.502;8.190;2023-03-11T00:07:53;1.40;99.90
66013;DHT22;52783;50.502;8.190;2023-03-11T00:10:21;1.40;99.90
66013;DHT22;52783;50.502;8.190;2023-03-11T00:12:48;1.40;99.90
66013;DHT22;52783;50.502;8.190;2023-03-11T00:15:14;1.40;99.90
66013;DHT22;52783;50.502;8.190;2023-03-11T00:17:39;1.50;99.90
66013;DHT22;52783;50.502;8.190;2023-03-11T00:20:06;1.40;99.90
66013;DHT22;52783;50.502;8.190;2023-03-11T00:22:32;1.40;99.90
66013;DHT22;52783;50.502;8.190;2023-03-11T00:24:58;1.40;99.90
66013;DHT22;52783;50.502;8.190;2023-03-11T00:27:24;1.40;99.90
66013;DHT22;52783;50.502;8.190;2023-03-11T00:29:50;1.30;99.90
66013;DHT22;52783;50.502;8.190;2023-03-11T00:32:15;1.30;99.90
66013;DHT22;52783;50.502;8.190;2023-03-11T00:34:41;1.40;99.90
66013;DHT22;52783;50.502;8.190;2023-03-11T00:37:07;1.30;99.90
66013;DHT22;52783;50.502;8.190;2023-03-11T00:39:32;1.30;99.90
66013;DHT22;52783;50.502;8.190;2023-03-11T00:41:58;1.30;99.90
66013;DHT22;52783;50.502;8.190;2023-03-11T00:44:24;1.30;99.90
66013;DHT22;52783;50.502;8.190;2023-03-11T00:46:49;1.30;99.90
66013;DHT22;52783;50.502;8.190;2023-03-11T00:49:15;1.30;99.90
66013;DHT22;52783;50.502;8.190;2023-03-11T00:51:40;1.10;99.90
66013;DHT22;52783;50.502;8.190;2023-03-11T00:54:06;1.10;99.90
66013;DHT22;52783;50.502;8.190;2023-03-11T00:56:31;1.10;99.90
66013;DHT22;52783;50.502;8.190;2023-03-11T00:58:57;1.10;99.90
66013;DHT22;52783;50.502;8.190;2023-03-11T01:01:22;1.00;99.90
66013;DHT22;52783;50.502;8.190;2023-03-11T01:03:48;1.10;99.90
66013;DHT22;52783;50.502;8.190;2023-03-11T01:06:14;1.00;99.90
66013;DHT22;52783;50.502;8.190;2023-03-11T01:08:40;1.00;99.90
66013;DHT22;52783;50.502;8.190;2023-03-11T01:11:06;1.10;99.90
66013;DHT22;52783;50.502;8.190;2023-03-11T01:13:33;1.10;99.90
66013;DHT22;52783;50.502;8.190;2023-03-11T01:15:59;1.20;99.90
66013;DHT22;52783;50.502;8.190;2023-03-11T01:18:25;1.20;99.90
66013;DHT22;52783;50.502;8.190;2023-03-11T01:20:51;1.20;99.90
66013;DHT22;52783;50.502;8.190;2023-03-11T01:23:20;1.30;99.90
66013;DHT22;52783;50.502;8.190;2023-03-11T01:25:45;1.30;99.90
66013;DHT22;52783;50.502;8.190;2023-03-11T01:28:11;1.30;99.90
66013;DHT22;52783;50.502;8.190;2023-03-11T01:30:38;1.20;99.90
66013;DHT22;52783;50.502;8.190;2023-03-11T01:33:05;1.20;99.90
66013;DHT22;52783;50.502;8.190;2023-03-11T01:35:32;1.20;99.90
66013;DHT22;52783;50.502;8.190;2023-03-11T01:37:58;1.30;99.90
66013;DHT22;52783;50.502;8.190;2023-03-11T01:40:42;1.30;99.90
66013;DHT22;52783;50.502;8.190;2023-03-11T01:48:36;1.20;99.90
66013;DHT22;52783;50.502;8.190;2023-03-11T01:51:04;1.20;99.90
66013;DHT22;52783;50.502;8.190;2023-03-11T01:53:30;1.20;99.90
66013;DHT22;52783;50.502;8.190;2023-03-11T01:55:56;1.20;99.90
66013;DHT22;52783;50.502;8.190;2023-03-11T01:58:29;1.30;99.90
66013;DHT22;52783;50.502;8.190;2023-03-11T02:00:55;1.30;99.90
66013;DHT22;52783;50.502;8.190;2023-03-11T02:03:30;1.40;99.90
66013;DHT22;52783;50.502;8.190;2023-03-11T02:05:58;1.30;99.90
66013;DHT22;52783;50.502;8.190;2023-03-11T02:08:25;1.30;99.90
66013;DHT22;52783;50.502;8.190;2023-03-11T02:10:52;1.30;99.90
66013;DHT22;52783;50.502;8.190;2023-03-11T02:13:18;1.30;99.90
66013;DHT22;52783;50.502;8.190;2023-03-11T02:15:44;1.30;99.90
66013;DHT22;52783;50.502;8.190;2023-03-11T02:18:12;1.30;99.90
66013;DHT22;52783;50.502;8.190;2023-03-11T02:24:01;1.30;99.90
66013;DHT22;52783;50.502;8.190;2023-03-11T02:29:51;1.40;99.90
66013;DHT22;52783;50.502;8.190;2023-03-11T02:32:18;1.40;99.90
66013;DHT22;52783;50.502;8.190;2023-03-11T02:34:44;1.40;99.90
66013;DHT22;52783;50.502;8.190;2023-03-11T02:37:13;1.30;99.90
66013;DHT22;52783;50.502;8.190;2023-03-11T02:39:42;1.30;99.90
66013;DHT22;52783;50.502;8.190;2023-03-11T02:42:27;1.40;99.90
66013;DHT22;52783;50.502;8.190;2023-03-11T02:45:07;1.40;99.90
66013;DHT22;52783;50.502;8.190;2023-03-11T02:47:34;1.30;99.90
66013;DHT22;52783;50.502;8.190;2023-03-11T02:50:01;1.30;99.90
66013;DHT22;52783;50.502;8.190;2023-03-11T02:52:28;1.40;99.90
66013;DHT22;52783;50.502;8.190;2023-03-11T02:54:56;1.30;99.90
66013;DHT22;52783;50.502;8.190;2023-03-11T02:57:21;1.30;99.90
66013;DHT22;52783;50.502;8.190;2023-03-11T02:59:47;1.30;99.90
66013;DHT22;52783;50.502;8.190;2023-03-11T03:02:12;1.30;99.90
66013;DHT22;52783;50.502;8.190;2023-03-11T03:04:38;1.20;99.90
66013;DHT22;52783;50.502;8.190;2023-03-11T03:07:03;1.20;99.90
66013;DHT22;52783;50.502;8.190;2023-03-11T03:09:29;1.20;99.90
66013;DHT22;52783;50.502;8.190;2023-03-11T03:11:54;1.10;99.90
66013;DHT22;52783;50.502;8.190;2023-03-11T03:14:20;1.10;99.90
66013;DHT22;52783;50.502;8.190;2023-03-11T03:16:45;1.20;99.90
66013;DHT22;52783;50.502;8.190;2023-03-11T03:19:11;1.10;99.90
66013;DHT22;52783;50.502;8.190;2023-03-11T03:21:36;1.10;99.90
66013;DHT22;52783;50.502;8.190;2023-03-11T03:24:02;1.10;99.90
66013;DHT22;52783;50.502;8.190;2023-03-11T03:26:28;1.20;99.90
66013;DHT22;52783;50.502;8.190;2023-03-11T03:28:53;1.10;99.90
66013;DHT22;52783;50.502;8.190;2023-03-11T03:31:19;1.10;99.90
66013;DHT22;52783;50.502;8.190;2023-03-11T03:33:45;1.10;99.90
66013;DHT22;52783;50.502;8.190;2023-03-11T03:36:12;1.10;99.90
66013;DHT22;52783;50.502;8.190;2023-03-11T03:38:38;1.00;99.90
66013;DHT22;52783;50.502;8.190;2023-03-11T03:41:04;1.00;99.90
66013;DHT22;52783;50.502;8.190;2023-03-11T03:43:30;0.90;99.90
66013;DHT22;52783;50.502;8.190;2023-03-11T03:45:57;1.00;99.90
66013;DHT22;52783;50.502;8.190;2023-03-11T03:48:23;0.90;99.90
66013;DHT22;52783;50.502;8.190;2023-03-11T03:50:49;0.90;99.90
66013;DHT22;52783;50.502;8.190;2023-03-11T03:53:14;0.90;99.90
66013;DHT22;52783;50.502;8.190;2023-03-11T03:55:40;0.90;99.90
66013;DHT22;52783;50.502;8.190;2023-03-11T03:58:05;0.90;99.90
66013;DHT22;52783;50.502;8.190;2023-03-11T04:00:31;1.00;99.90
66013;DHT22;52783;50.502;8.190;2023-03-11T04:02:57;1.00;99.90
66013;DHT22;52783;50.502;8.190;2023-03-11T04:05:22;1.10;99.90
66013;DHT22;52783;50.502;8.190;2023-03-11T04:07:51;1.10;99.90
66013;DHT22;52783;50.502;8.190;2023-03-11T04:10:17;0.80;99.90
66013;DHT22;52783;50.502;8.190;2023-03-11T04:12:42;0.70;99.90
66013;DHT22;52783;50.502;8.190;2023-03-11T04:15:08;0.60;99.90
66013;DHT22;52783;50.502;8.190;2023-03-11T04:17:34;0.70;99.90
66013;DHT22;52783;50.502;8.190;2023-03-11T04:20:00;0.70;99.90
66013;DHT22;52783;50.502;8.190;2023-03-11T04:22:26;0.80;99.90
66013;DHT22;52783;50.502;8.190;2023-03-11T04:24:51;0.90;99.90
66013;DHT22;52783;50.502;8.190;2023-03-11T04:27:17;0.90;99.90
66013;DHT22;52783;50.502;8.190;2023-03-11T04:29:42;0.90;99.90
66013;DHT22;52783;50.502;8.190;2023-03-11T04:32:08;1.00;99.90
66013;DHT22;52783;50.502;8.190;2023-03-11T04:34:33;1.00;99.90
66013;DHT22;52783;50.502;8.190;2023-03-11T04:36:59;1.00;99.90
66013;DHT22;52783;50.502;8.190;2023-03-11T04:39:24;1.10;99.90
66013;DHT22;52783;50.502;8.190;2023-03-11T04:41:50;1.10;99.90
66013;DHT22;52783;50.502;8.190;2023-03-11T04:44:15;1.00;99.90
66013;DHT22;52783;50.502;8.190;2023-03-11T04:46:41;1.00;99.90
66013;DHT22;52783;50.502;8.190;2023-03-11T04:49:07;1.00;99.90
66013;DHT22;52783;50.502;8.190;2023-03-11T04:51:32;1.00;99.90
66013;DHT22;52783;50.502;8.190;2023-03-11T04:53:58;1.00;99.90
66013;DHT22;52783;50.502;8.190;2023-03-11T04:56:24;0.90;99.90
66013;DHT22;52783;50.502;8.190;2023-03-11T04:58:49;0.90;99.90
66013;DHT22;52783;50.502;8.190;2023-03-11T05:01:15;0.90;99.90
66013;DHT22;52783;50.502;8.190;2023-03-11T05:03:40;0.90;99.90
66013;DHT22;52783;50.502;8.190;2023-03-11T05:06:06;0.80;99.90
66013;DHT22;52783;50.502;8.190;2023-03-11T05:08:31;0.80;99.90
66013;DHT22;52783;50.502;8.190;2023-03-11T05:10:57;0.80;99.90
66013;DHT22;52783;50.502;8.190;2023-03-11T05:13:22;0.80;99.90
66013;DHT22;52783;50.502;8.190;2023-03-11T05:15:48;0.80;99.90
66013;DHT22;52783;50.502;8.190;2023-03-11T05:18:14;0.70;99.90
66013;DHT22;52783;50.502;8.190;2023-03-11T05:20:40;0.70;99.90
66013;DHT22;52783;50.502;8.190;2023-03-11T05:23:05;0.70;99.90
66013;DHT22;52783;50.502;8.190;2023-03-11T05:25:31;0.70;99.90
66013;DHT22;52783;50.502;8.190;2023-03-11T05:27:57;0.70;99.90
66013;DHT22;52783;50.502;8.190;2023-03-11T05:30:22;0.60;99.90
66013;DHT22;52783;50.502;8.190;2023-03-11T05:32:48;0.60;99.90
66013;DHT22;52783;50.502;8.190;2023-03-11T05:35:14;0.70;99.90
66013;DHT22;52783;50.502;8.190;2023-03-11T05:37:40;0.70;99.90
66013;DHT22;52783;50.502;8.190;2023-03-11T05:40:06;0.60;99.90
66013;DHT22;52783;50.502;8.190;2023-03-11T05:42:34;0.60;99.90
66013;DHT22;52783;50.502;8.190;2023-03-11T05:44:59;0.60;99.90
66013;DHT22;52783;50.502;8.190;2023-03-11T05:47:25;0.60;99.90
66013;DHT22;52783;50.502;8.190;2023-03-11T05:49:50;0.50;99.90
66013;DHT22;52783;50.502;8.190;2023-03-11T05:52:16;0.40;99.90
66013;DHT22;52783;50.502;8.190;2023-03-11T05:54:41;0.40;99.90
66013;DHT22;52783;50.502;8.190;2023-03-11T05:57:07;0.40;99.90
66013;DHT22;52783;50.502;8.190;2023-03-11T05:59:32;0.40;99.90
66013;DHT22;52783;50.502;8.190;2023-03-11T06:02:00;0.40;99.90
66013;DHT22;52783;50.502;8.190;2023-03-11T06:04:25;0.40;99.90
66013;DHT22;52783;50.502;8.190;2023-03-11T06:06:51;0.40;99.90
66013;DHT22;52783;50.502;8.190;2023-03-11T06:09:17;0.40;99.90
66013;DHT22;52783;50.502;8.190;2023-03-11T06:11:42;0.30;99.90
66013;DHT22;52783;50.502;8.190;2023-03-11T06:14:12;0.30;99.90
66013;DHT22;52783;50.502;8.190;2023-03-11T06:16:38;0.40;99.90
66013;DHT22;52783;50.502;8.190;2023-03-11T06:19:04;0.40;99.90
66013;DHT22;52783;50.502;8.190;2023-03-11T06:21:30;0.40;99.90
66013;DHT22;52783;50.502;8.190;2023-03-11T06:23:56;0.40;99.90
66013;DHT22;52783;50.502;8.190;2023-03-11T06:26:22;0.40;99.90
66013;DHT22;52783;50.502;8.190;2023-03-11T06:28:49;0.40;99.90
66013;DHT22;52783;50.502;8.190;2023-03-11T06:31:20;0.50;99.90
66013;DHT22;52783;50.502;8.190;2023-03-11T06:33:47;0.50;99.90
66013;DHT22;52783;50.502;8.190;2023-03-11T06:36:15;0.50;99.90
66013;DHT22;52783;50.502;8.190;2023-03-11T06:38:41;0.60;99.90
66013;DHT22;52783;50.502;8.190;2023-03-11T06:41:07;0.80;99.90
66013;DHT22;52783;50.502;8.190;2023-03-11T06:43:34;1.10;99.90
66013;DHT22;52783;50.502;8.190;2023-03-11T06:46:00;1.40;99.90
66013;DHT22;52783;50.502;8.190;2023-03-11T06:48:26;1.70;99.90
66013;DHT22;52783;50.502;8.190;2023-03-11T06:50:59;2.30;99.90
66013;DHT22;52783;50.502;8.190;2023-03-11T06:53:26;2.30;99.90
66013;DHT22;52783;50.502;8.190;2023-03-11T06:56:09;2.40;99.90
66013;DHT22;52783;50.502;8.190;2023-03-11T06:58:36;2.50;99.90
66013;DHT22;52783;50.502;8.190;2023-03-11T07:01:07;2.30;99.90
66013;DHT22;52783;50.502;8.190;2023-03-11T07:03:33;2.40;99.90
66013;DHT22;52783;50.502;8.190;2023-03-11T07:05:59;2.50;99.90
66013;DHT22;52783;50.502;8.190;2023-03-11T07:08:24;2.60;99.90
66013;DHT22;52783;50.502;8.190;2023-03-11T07:11:14;2.40;99.90
66013;DHT22;52783;50.502;8.190;2023-03-11T07:13:40;2.10;99.90
66013;DHT22;52783;50.502;8.190;2023-03-11T07:16:08;2.10;99.90
66013;DHT22;52783;50.502;8.190;2023-03-11T07:18:35;1.90;99.90
66013;DHT22;52783;50.502;8.190;2023-03-11T07:21:02;1.90;99.90
66013;DHT22;52783;50.502;8.190;2023-03-11T07:23:28;1.60;99.90
66013;DHT22;52783;50.502;8.190;2023-03-11T07:25:54;1.50;99.90
66013;DHT22;52783;50.502;8.190;2023-03-11T07:28:21;1.60;99.90
66013;DHT22;52783;50.502;8.190;2023-03-11T07:30:47;1.70;99.90
66013;DHT22;52783;50.502;8.190;2023-03-11T07:33:13;1.60;99.90
66013;DHT22;52783;50.502;8.190;2023-03-11T07:35:38;1.70;99.90
66013;DHT22;52783;50.502;8.190;2023-03-11T07:38:04;1.60;99.90
66013;DHT22;52783;50.502;8.190;2023-03-11T07:40:30;1.60;99.90
66013;DHT22;52783;50.502;8.190;2023-03-11T07:42:55;1.40;99.90
66013;DHT22;52783;50.502;8.190;2023-03-11T07:45:22;1.50;99.90
66013;DHT22;52783;50.502;8.190;2023-03-11T07:47:47;1.60;99.90
66013;DHT22;52783;50.502;8.190;2023-03-11T07:50:13;1.60;99.90
66013;DHT22;52783;50.502;8.190;2023-03-11T07:52:38;1.70;99.90
66013;DHT22;52783;50.502;8.190;2023-03-11T07:55:04;1.80;99.90
66013;DHT22;52783;50.502;8.190;2023-03-11T07:57:30;2.10;99.90
66013;DHT22;52783;50.502;8.190;2023-03-11T07:59:55;2.00;99.90
66013;DHT22;52783;50.502;8.190;2023-03-11T08:02:21;2.00;99.90
66013;DHT22;52783;50.502;8.190;2023-03-11T08:04:46;2.00;99.90
66013;DHT22;52783;50.502;8.190;2023-03-11T08:07:12;2.00;99.90
66013;DHT22;52783;50.502;8.190;2023-03-11T08:09:37;2.00;99.90
66013;DHT22;52783;50.502;8.190;2023-03-11T08:12:03;2.10;99.90
66013;DHT22;52783;50.502;8.190;2023-03-11T08:14:29;2.20;99.90
66013;DHT22;52783;50.502;8.190;2023-03-11T08:16:54;2.40;99.90
66013;DHT22;52783;50.502;8.190;2023-03-11T08:19:20;2.50;99.90
66013;DHT22;52783;50.502;8.190;2023-03-11T08:21:45;2.30;99.90
66013;DHT22;52783;50.502;8.190;2023-03-11T08:24:12;2.40;99.90
66013;DHT22;52783;50.502;8.190;2023-03-11T08:26:38;2.50;99.90
66013;DHT22;52783;50.502;8.190;2023-03-11T08:29:04;2.70;99.90
66013;DHT22;52783;50.502;8.190;2023-03-11T08:31:31;2.90;99.90
66013;DHT22;52783;50.502;8.190;2023-03-11T08:34:03;3.40;99.90
66013;DHT22;52783;50.502;8.190;2023-03-11T08:36:30;3.50;99.90
66013;DHT22;52783;50.502;8.190;2023-03-11T08:38:55;3.30;99.90
66013;DHT22;52783;50.502;8.190;2023-03-11T08:41:21;3.20;99.90
66013;DHT22;52783;50.502;8.190;2023-03-11T08:43:47;2.70;99.90
66013;DHT22;52783;50.502;8.190;2023-03-11T08:46:22;2.50;99.90
66013;DHT22;52783;50.502;8.190;2023-03-11T08:48:48;2.50;99.90
66013;DHT22;52783;50.502;8.190;2023-03-11T08:51:15;3.00;99.90
66013;DHT22;52783;50.502;8.190;2023-03-11T08:53:41;3.50;99.90
66013;DHT22;52783;50.502;8.190;2023-03-11T08:56:07;3.70;99.90
66013;DHT22;52783;50.502;8.190;2023-03-11T08:58:33;3.10;99.90
66013;DHT22;52783;50.502;8.190;2023-03-11T09:00:58;2.80;99.90
66013;DHT22;52783;50.502;8.190;2023-03-11T09:03:24;2.70;99.90
66013;DHT22;52783;50.502;8.190;2023-03-11T09:05:56;2.80;99.90
66013;DHT22;52783;50.502;8.190;2023-03-11T09:08:22;2.60;99.90
66013;DHT22;52783;50.502;8.190;2023-03-11T09:10:47;2.30;99.90
66013;DHT22;52783;50.502;8.190;2023-03-11T09:13:13;2.20;99.90
66013;DHT22;52783;50.502;8.190;2023-03-11T09:15:38;2.80;99.90
66013;DHT22;52783;50.502;8.190;2023-03-11T09:18:04;3.10;99.90
66013;DHT22;52783;50.502;8.190;2023-03-11T09:20:30;2.90;99.90
66013;DHT22;52783;50.502;8.190;2023-03-11T09:22:55;3.00;99.90
66013;DHT22;52783;50.502;8.190;2023-03-11T09:25:21;3.30;99.90
66013;DHT22;52783;50.502;8.190;2023-03-11T09:27:46;3.20;99.90
66013;DHT22;52783;50.502;8.190;2023-03-11T09:30:12;3.00;99.90
66013;DHT22;52783;50.502;8.190;2023-03-11T09:32:38;2.90;99.90
66013;DHT22;52783;50.502;8.190;2023-03-11T09:35:03;3.40;99.90
66013;DHT22;52783;50.502;8.190;2023-03-11T09:37:29;2.60;99.90
66013;DHT22;52783;50.502;8.190;2023-03-11T09:39:55;2.30;99.90
66013;DHT22;52783;50.502;8.190;2023-03-11T09:42:41;2.40;99.90
66013;DHT22;52783;50.502;8.190;2023-03-11T09:45:17;2.20;99.90
66013;DHT22;52783;50.502;8.190;2023-03-11T09:50:23;2.50;99.90
66013;DHT22;52783;50.502;8.190;2023-03-11T09:55:49;2.40;99.90
66013;DHT22;52783;50.502;8.190;2023-03-11T09:58:38;2.20;99.90
66013;DHT22;52783;50.502;8.190;2023-03-11T10:01:16;2.20;99.90
66013;DHT22;52783;50.502;8.190;2023-03-11T10:03:43;2.30;99.90
66013;DHT22;52783;50.502;8.190;2023-03-11T10:06:18;2.50;99.90
66013;DHT22;52783;50.502;8.190;2023-03-11T10:08:56;2.60;99.90
66013;DHT22;52783;50.502;8.190;2023-03-11T10:11:45;2.40;99.90
66013;DHT22;52783;50.502;8.190;2023-03-11T10:14:40;2.70;99.90
66013;DHT22;52783;50.502;8.190;2023-03-11T10:17:20;2.80;99.90
66013;DHT22;52783;50.502;8.190;2023-03-11T10:19:55;3.10;99.90
66013;DHT22;52783;50.502;8.190;2023-03-11T10:25:12;3.40;99.90
66013;DHT22;52783;50.502;8.190;2023-03-11T10:30:26;3.10;99.90
66013;DHT22;52783;50.502;8.190;2023-03-11T10:35:41;3.00;99.90
66013;DHT22;52783;50.502;8.190;2023-03-11T10:40:47;2.70;99.90
66013;DHT22;52783;50.502;8.190;2023-03-11T10:43:23;3.10;99.90
66013;DHT22;52783;50.502;8.190;2023-03-11T10:45:50;3.20;99.90
66013;DHT22;52783;50.502;8.190;2023-03-11T10:48:17;3.70;99.90
66013;DHT22;52783;50.502;8.190;2023-03-11T10:50:51;3.80;99.90
66013;DHT22;52783;50.502;8.190;2023-03-11T10:53:19;3.60;99.90
66013;DHT22;52783;50.502;8.190;2023-03-11T10:55:57;3.40;99.90
66013;DHT22;52783;50.502;8.190;2023-03-11T10:58:28;3.40;99.90
66013;DHT22;52783;50.502;8.190;2023-03-11T11:01:06;3.10;99.90
66013;DHT22;52783;50.502;8.190;2023-03-11T11:03:41;3.00;99.90
66013;DHT22;52783;50.502;8.190;2023-03-11T11:06:19;3.30;99.90
66013;DHT22;52783;50.502;8.190;2023-03-11T11:08:45;3.50;99.90
66013;DHT22;52783;50.502;8.190;2023-03-11T11:11:21;3.70;99.90
66013;DHT22;52783;50.502;8.190;2023-03-11T11:13:57;4.20;99.90
66013;DHT22;52783;50.502;8.190;2023-03-11T11:16:23;4.30;99.90
66013;DHT22;52783;50.502;8.190;2023-03-11T11:19:10;4.40;99.90
66013;DHT22;52783;50.502;8.190;2023-03-11T11:21:46;4.00;99.90
66013;DHT22;52783;50.502;8.190;2023-03-11T11:24:27;3.90;99.90
66013;DHT22;52783;50.502;8.190;2023-03-11T11:27:15;4.10;99.90
66013;DHT22;52783;50.502;8.190;2023-03-11T11:29:42;4.30;99.90
66013;DHT22;52783;50.502;8.190;2023-03-11T11:32:25;4.00;99.90
66013;DHT22;52783;50.502;8.190;2023-03-11T11:35:04;4.10;99.90
66013;DHT22;52783;50.502;8.190;2023-03-11T11:37:32;4.40;99.90
66013;DHT22;52783;50.502;8.190;2023-03-11T11:40:28;4.60;99.90
66013;DHT22;52783;50.502;8.190;2023-03-11T11:42:59;4.40;99.90
66013;DHT22;52783;50.502;8.190;2023-03-11T11:45:40;4.70;99.90
66013;DHT22;52783;50.502;8.190;2023-03-11T11:48:42;5.10;99.90
66013;DHT22;52783;50.502;8.190;2023-03-11T11:51:19;5.10;99.90
66013;DHT22;52783;50.502;8.190;2023-03-11T11:56:24;5.10;99.90
66013;DHT22;52783;50.502;8.190;2023-03-11T11:58:49;4.50;99.90
66013;DHT22;52783;50.502;8.190;2023-03-11T12:01:20;4.80;99.90
66013;DHT22;52783;50.502;8.190;2023-03-11T12:09:13;4.70;99.90
66013;DHT22;52783;50.502;8.190;2023-03-11T12:11:53;5.30;99.90
66013;DHT22;52783;50.502;8.190;2023-03-11T12:17:03;5.20;99.90
66013;DHT22;52783;50.502;8.190;2023-03-11T12:20:08;4.90;99.90
66013;DHT22;52783;50.502;8.190;2023-03-11T12:22:54;5.10;99.90
66013;DHT22;52783;50.502;8.190;2023-03-11T12:25:32;5.20;99.90
66013;DHT22;52783;50.502;8.190;2023-03-11T12:30:59;5.30;99.90
66013;DHT22;52783;50.502;8.190;2023-03-11T12:36:02;5.70;99.90
66013;DHT22;52783;50.502;8.190;2023-03-11T12:38:38;5.50;99.90
66013;DHT22;52783;50.502;8.190;2023-03-11T12:50:55;6.20;99.90
66013;DHT22;52783;50.502;8.190;2023-03-11T12:53:47;6.00;99.90
66013;DHT22;52783;50.502;8.190;2023-03-11T12:56:20;5.90;99.90
66013;DHT22;52783;50.502;8.190;2023-03-11T13:01:49;5.60;99.90
66013;DHT22;52783;50.502;8.190;2023-03-11T13:09:21;5.30;99.90
66013;DHT22;52783;50.502;8.190;2023-03-11T13:11:48;5.10;99.90
66013;DHT22;52783;50.502;8.190;2023-03-11T13:14:27;5.10;99.90
66013;DHT22;52783;50.502;8.190;2023-03-11T13:16:55;5.20;99.90
66013;DHT22;52783;50.502;8.190;2023-03-11T13:21:57;5.20;99.90
66013;DHT22;52783;50.502;8.190;2023-03-11T13:26:54;5.00;99.90
66013;DHT22;52783;50.502;8.190;2023-03-11T13:32:35;5.20;99.90
66013;DHT22;52783;50.502;8.190;2023-03-11T13:40:42;5.40;99.90
66013;DHT22;52783;50.502;8.190;2023-03-11T13:46:35;5.20;99.90
66013;DHT22;52783;50.502;8.190;2023-03-11T13:49:08;5.20;99.90
66013;DHT22;52783;50.502;8.190;2023-03-11T13:51:44;5.30;99.90
66013;DHT22;52783;50.502;8.190;2023-03-11T13:59:51;4.80;99.90
66013;DHT22;52783;50.502;8.190;2023-03-11T14:02:19;4.70;99.90
66013;DHT22;52783;50.502;8.190;2023-03-11T14:05:12;4.60;99.90
66013;DHT22;52783;50.502;8.190;2023-03-11T14:07:39;4.80;99.90
66013;DHT22;52783;50.502;8.190;2023-03-11T14:12:37;5.20;99.90
66013;DHT22;52783;50.502;8.190;2023-03-11T14:15:07;5.40;99.90
66013;DHT22;52783;50.502;8.190;2023-03-11T14:17:33;5.40;99.90
66013;DHT22;52783;50.502;8.190;2023-03-11T14:20:15;5.60;99.90
66013;DHT22;52783;50.502;8.190;2023-03-11T14:22:52;5.60;99.90
66013;DHT22;52783;50.502;8.190;2023-03-11T14:25:25;5.10;99.90
66013;DHT22;52783;50.502;8.190;2023-03-11T14:27:54;5.10;99.90
66013;DHT22;52783;50.502;8.190;2023-03-11T14:30:23;5.00;99.90
66013;DHT22;52783;50.502;8.190;2023-03-11T14:32:57;4.90;99.90
66013;DHT22;52783;50.502;8.190;2023-03-11T14:35:23;4.80;99.90
66013;DHT22;52783;50.502;8.190;2023-03-11T14:37:49;4.90;99.90
66013;DHT22;52783;50.502;8.190;2023-03-11T14:42:57;5.10;99.90
66013;DHT22;52783;50.502;8.190;2023-03-11T14:45:28;4.90;99.90
66013;DHT22;52783;50.502;8.190;2023-03-11T14:50:26;4.50;99.90
66013;DHT22;52783;50.502;8.190;2023-03-11T14:55:31;4.40;99.90
66013;DHT22;52783;50.502;8.190;2023-03-11T14:58:35;4.30;99.90
66013;DHT22;52783;50.502;8.190;2023-03-11T15:01:23;4.30;99.90
66013;DHT22;52783;50.502;8.190;2023-03-11T15:06:27;4.50;99.90
66013;DHT22;52783;50.502;8.190;2023-03-11T15:09:02;4.30;99.90
66013;DHT22;52783;50.502;8.190;2023-03-11T15:11:29;4.30;99.90
66013;DHT22;52783;50.502;8.190;2023-03-11T15:14:22;4.20;99.90
66013;DHT22;52783;50.502;8.190;2023-03-11T15:16:49;4.10;99.90
66013;DHT22;52783;50.502;8.190;2023-03-11T15:21:54;4.00;99.90
66013;DHT22;52783;50.502;8.190;2023-03-11T15:24:25;3.90;99.90
66013;DHT22;52783;50.502;8.190;2023-03-11T15:26:55;4.00;99.90
66013;DHT22;52783;50.502;8.190;2023-03-11T15:29:21;4.00;99.90
66013;DHT22;52783;50.502;8.190;2023-03-11T15:31:48;3.90;99.90
66013;DHT22;52783;50.502;8.190;2023-03-11T15:39:24;3.80;99.90
66013;DHT22;52783;50.502;8.190;2023-03-11T15:47:06;4.00;99.90
66013;DHT22;52783;50.502;8.190;2023-03-11T15:49:36;4.10;99.90
66013;DHT22;52783;50.502;8.190;2023-03-11T15:52:02;4.10;99.90
66013;DHT22;52783;50.502;8.190;2023-03-11T15:54:27;4.00;99.90
66013;DHT22;52783;50.502;8.190;2023-03-11T15:56:55;4.00;99.90
66013;DHT22;52783;50.502;8.190;2023-03-11T15:59:22;4.10;99.90
66013;DHT22;52783;50.502;8.190;2023-03-11T16:01:48;4.20;99.90
66013;DHT22;52783;50.502;8.190;2023-03-11T16:04:16;4.30;99.90
66013;DHT22;52783;50.502;8.190;2023-03-11T16:06:42;4.20;99.90
66013;DHT22;52783;50.502;8.190;2023-03-11T16:09:08;4.20;99.90
66013;DHT22;52783;50.502;8.190;2023-03-11T16:11:34;4.20;99.90
66013;DHT22;52783;50.502;8.190;2023-03-11T16:14:00;4.40;99.90
66013;DHT22;52783;50.502;8.190;2023-03-11T16:16:26;4.30;99.90
66013;DHT22;52783;50.502;8.190;2023-03-11T16:18:52;4.20;99.90
66013;DHT22;52783;50.502;8.190;2023-03-11T16:21:20;4.20;99.90
66013;DHT22;52783;50.502;8.190;2023-03-11T16:23:46;4.20;99.90
66013;DHT22;52783;50.502;8.190;2023-03-11T16:26:13;4.10;99.90
66013;DHT22;52783;50.502;8.190;2023-03-11T16:28:39;4.10;99.90
66013;DHT22;52783;50.502;8.190;2023-03-11T16:31:05;4.10;99.90
66013;DHT22;52783;50.502;8.190;2023-03-11T16:33:34;4.10;99.90
66013;DHT22;52783;50.502;8.190;2023-03-11T16:36:00;4.10;99.90
66013;DHT22;52783;50.502;8.190;2023-03-11T16:38:25;4.10;99.90
66013;DHT22;52783;50.502;8.190;2023-03-11T16:40:59;4.00;99.90
66013;DHT22;52783;50.502;8.190;2023-03-11T16:43:27;3.90;99.90
66013;DHT22;52783;50.502;8.190;2023-03-11T16:45:53;3.90;99.90
66013;DHT22;52783;50.502;8.190;2023-03-11T16:48:22;3.80;99.90
66013;DHT22;52783;50.502;8.190;2023-03-11T16:50:48;3.80;99.90
66013;DHT22;52783;50.502;8.190;2023-03-11T16:53:14;3.90;99.90
66013;DHT22;52783;50.502;8.190;2023-03-11T16:55:43;3.90;99.90
66013;DHT22;52783;50.502;8.190;2023-03-11T16:58:09;3.80;99.90
66013;DHT22;52783;50.502;8.190;2023-03-11T17:00:34;3.80;99.90
66013;DHT22;52783;50.502;8.190;2023-03-11T17:03:00;3.70;99.90
66013;DHT22;52783;50.502;8.190;2023-03-11T17:05:25;3.80;99.90
66013;DHT22;52783;50.502;8.190;2023-03-11T17:07:55;3.70;99.90
66013;DHT22;52783;50.502;8.190;2023-03-11T17:10:25;3.60;99.90
66013;DHT22;52783;50.502;8.190;2023-03-11T17:12:51;3.60;99.90
66013;DHT22;52783;50.502;8.190;2023-03-11T17:15:16;3.60;99.90
66013;DHT22;52783;50.502;8.190;2023-03-11T17:17:42;3.60;99.90
66013;DHT22;52783;50.502;8.190;2023-03-11T17:20:08;3.50;99.90
66013;DHT22;52783;50.502;8.190;2023-03-11T17:22:34;3.40;99.90
66013;DHT22;52783;50.502;8.190;2023-03-11T17:25:00;3.30;99.90
66013;DHT22;52783;50.502;8.190;2023-03-11T17:27:26;3.30;99.90
66013;DHT22;52783;50.502;8.190;2023-03-11T17:30:00;3.20;99.90
66013;DHT22;52783;50.502;8.190;2023-03-11T17:32:26;3.20;99.90
66013;DHT22;52783;50.502;8.190;2023-03-11T17:34:52;3.10;99.90
66013;DHT22;52783;50.502;8.190;2023-03-11T17:37:17;3.10;99.90
66013;DHT22;52783;50.502;8.190;2023-03-11T17:39:43;3.00;99.90
66013;DHT22;52783;50.502;8.190;2023-03-11T17:42:08;3.00;99.90
66013;DHT22;52783;50.502;8.190;2023-03-11T17:44:34;3.00;99.90